Flight Track Log - Related Links

Times and Time Zones

All times are in EDT time to prevent confusion due to time zone crossing. See the UAL252 flight status page for this flight to view local times or setup timezone preferences in your user account.

Time Position Orientation Groundspeed Altitude Reporting Facility
EDT Latitude Longitude Course Direction KTS MPH feet Rate Location/Type
Thu 09:23:24 AM 40.6333 -74.1833 270° West 195 224 2,000  Level New York TRACON
Thu 09:24:24 AM 40.6000 -74.2500 237° Southwest 260 299 3,000 1,950 Climbing New York TRACON
Thu 09:25:00 AM 40.6834 -74.6323 270° West  Level FlightAware Approximate
Thu 09:25:24 AM 40.6167 -74.3333 285° West 269 310 5,900  Level New York TRACON
Thu 09:26:00 AM 40.6834 -74.7875 270° West  Level FlightAware Approximate
Thu 09:26:24 AM 40.6500 -74.4167 298° West 273 314 9,000  Level New York TRACON
Thu 09:27:00 AM 40.6833 -74.9427 270° West  Level FlightAware Approximate
Thu 09:27:24 AM 40.7000 -74.5167 303° West 294 338 11,000  Level New York TRACON
Thu 09:28:00 AM 40.6667 -75.0913 270° West  Level FlightAware Approximate
Thu 09:29:25 AM 40.7133 -74.7517 274° West 368 423 15,200  Level New York Center
Thu 09:30:26 AM 40.7025 -74.8825 264° West 363 418 17,400 1,884 Climbing New York Center
Thu 09:31:26 AM 40.6894 -75.0131 263° West 363 418 19,000 1,650 Climbing New York Center
Thu 09:32:26 AM 40.6583 -75.1289 251° West 371 427 20,700 1,575 Climbing New York Center
Thu 09:34:25 AM 40.5397 -75.3972 240° Southwest 405 466 23,700 1,392 Climbing New York Center
Thu 09:35:27 AM 40.4783 -75.5239 238° Southwest 411 473 24,900 1,200 Climbing New York Center
Thu 09:36:25 AM 40.4167 -75.6589 239° Southwest 417 480 26,100 1,160 Climbing New York Center
Thu 09:37:26 AM 40.3617 -75.7775 239° Southwest 427 491 27,200 1,033 Climbing New York Center
Thu 09:38:27 AM 40.2953 -75.9169 238° Southwest 443 510 28,200 1,190 Climbing New York Center
Thu 09:39:27 AM 40.2308 -76.0536 238° Southwest 448 516 29,600 1,322 Climbing New York Center
Thu 09:40:25 AM 40.1614 -76.2031 239° Southwest 448 516 30,800 1,128 Climbing New York Center
Thu 09:41:24 AM 40.1036 -76.3236 238° Southwest 448 516 31,800 590 Climbing New York Center
Thu 09:42:27 AM 40.0431 -76.4597 240° Southwest 443 510 32,000 100 Climbing New York Center
Thu 09:43:24 AM 39.9781 -76.5953 238° Southwest 443 510 32,000  Level New York Center
Thu 09:44:27 AM 39.9150 -76.7281 238° Southwest 438 504 32,000  Level New York Center
Thu 09:45:27 AM 39.8542 -76.8608 239° Southwest 431 496 32,000  Level New York Center
Thu 09:46:27 AM 39.7950 -76.9936 240° Southwest 431 496 32,000  Level New York Center
Thu 09:47:00 AM 39.7567 -77.0653 235° Southwest 421 484 32,000 65 Level Washington Center
Thu 09:48:00 AM 39.6947 -77.1989 239° Southwest 421 484 32,100  Climbing Washington Center
Thu 09:49:00 AM 39.6303 -77.3319 238° Southwest 426 490 32,000 -50 Descending Washington Center
Thu 09:50:01 AM 39.5678 -77.4653 239° Southwest 426 490 32,000  Level Washington Center
Thu 09:50:59 AM 39.5053 -77.6008 239° Southwest 426 490 32,000  Level Washington Center
Thu 09:52:00 AM 39.4406 -77.7333 238° Southwest 426 490 32,000  Level Washington Center
Thu 09:53:00 AM 39.3775 -77.8631 238° Southwest 426 490 32,000  Level Washington Center
Thu 09:54:01 AM 39.3228 -78.0008 243° Southwest 432 497 32,000  Level Washington Center
Thu 09:54:59 AM 39.2722 -78.1386 245° Southwest 432 497 32,000  Level Washington Center
Thu 09:55:59 AM 39.2214 -78.2653 243° Southwest 432 497 32,000  Level Washington Center
Thu 09:57:00 AM 39.1550 -78.4289 242° Southwest 432 497 32,000  Level Washington Center
Thu 09:58:01 AM 39.1019 -78.5633 243° Southwest 432 497 32,000  Level Washington Center
Thu 09:59:01 AM 39.0464 -78.6972 242° Southwest 426 490 32,000  Level Washington Center
Thu 09:59:59 AM 38.9906 -78.8339 242° Southwest 426 490 32,000  Level Washington Center
Thu 10:01:00 AM 38.9617 -78.9794 256° West 421 484 32,000  Level Washington Center
Thu 10:02:01 AM 38.9447 -79.1281 262° West 420 483 32,000  Level Washington Center
Thu 10:02:59 AM 38.9256 -79.2794 261° West 426 490 32,000  Level Washington Center
Thu 10:03:59 AM 38.9083 -79.4306 262° West 426 490 32,000  Level Washington Center
Thu 10:04:59 AM 38.8911 -79.5789 262° West 426 490 32,000  Level Washington Center
Thu 10:06:01 AM 38.8714 -79.7300 261° West 426 490 32,000  Level Washington Center
Thu 10:07:01 AM 38.8514 -79.8808 260° West 426 490 32,000  Level Washington Center
Thu 10:08:07 AM 38.8331 -80.0300 261° West 423 487 32,000  Level Indianapolis Center
Thu 10:09:09 AM 38.8169 -80.1758 262° West 415 478 32,000 -48 Level Indianapolis Center
Thu 10:10:11 AM 38.8144 -80.3236 269° West 413 475 31,900  Descending Indianapolis Center
Thu 10:11:13 AM 38.8086 -80.5008 268° West 415 478 32,000 48 Climbing Indianapolis Center
Thu 10:12:15 AM 38.8050 -80.6511 268° West 420 483 32,000  Level Indianapolis Center
Thu 10:13:17 AM 38.7997 -80.8000 267° West 419 482 32,000  Level Indianapolis Center
Thu 10:14:19 AM 38.7950 -80.9497 268° West 420 483 32,000  Level Indianapolis Center
Thu 10:15:21 AM 38.7903 -81.1014 268° West 426 490 32,000  Level Indianapolis Center
Thu 10:16:23 AM 38.7850 -81.2511 267° West 423 487 32,000  Level Indianapolis Center
Thu 10:17:25 AM 38.7794 -81.4300 268° West 424 488 32,000  Level Indianapolis Center
Thu 10:18:27 AM 38.7731 -81.5711 267° West 425 489 32,000  Level Indianapolis Center
Thu 10:19:29 AM 38.7678 -81.7247 268° West 429 494 32,000  Level Indianapolis Center
Thu 10:20:31 AM 38.7611 -81.8733 267° West 422 486 32,000  Level Indianapolis Center
Thu 10:21:33 AM 38.7531 -82.0542 267° West 424 488 32,000  Level Indianapolis Center
Thu 10:22:36 AM 38.7478 -82.2053 267° West 426 490 32,000  Level Indianapolis Center
Thu 10:23:38 AM 38.7419 -82.3542 267° West 421 484 32,000  Level Indianapolis Center
Thu 10:24:40 AM 38.7358 -82.5050 267° West 423 487 32,000  Level Indianapolis Center
Thu 10:25:42 AM 38.7294 -82.6556 267° West 423 487 32,000  Level Indianapolis Center
Thu 10:26:44 AM 38.7228 -82.8075 267° West 425 489 32,000  Level Indianapolis Center
Thu 10:27:46 AM 38.7153 -82.9897 267° West 428 493 32,000  Level Indianapolis Center
Thu 10:28:48 AM 38.7078 -83.1431 266° West 428 493 32,000  Level Indianapolis Center
Thu 10:29:50 AM 38.7017 -83.2864 267° West 426 490 32,000  Level Indianapolis Center
Thu 10:30:52 AM 38.6939 -83.4400 266° West 426 490 32,000 -48 Level Indianapolis Center
Thu 10:31:54 AM 38.6858 -83.6175 267° West 425 489 31,900 -48 Descending Indianapolis Center
Thu 10:32:56 AM 38.6778 -83.7706 266° West 426 490 31,900  Level Indianapolis Center
Thu 10:33:58 AM 38.6700 -83.9217 266° West 422 486 31,900  Level Indianapolis Center
Thu 10:35:00 AM 38.6617 -84.0733 266° West 423 487 31,900 48 Level Indianapolis Center
Thu 10:36:02 AM 38.6531 -84.2275 266° West 427 491 32,000 48 Climbing Indianapolis Center
Thu 10:37:04 AM 38.6511 -84.3794 269° West 425 489 32,000  Level Indianapolis Center
Thu 10:38:06 AM 38.6628 -84.5497 275° West 429 494 32,000  Level Indianapolis Center
Thu 10:39:08 AM 38.6719 -84.7000 275° West 427 491 32,000  Level Indianapolis Center
Thu 10:40:10 AM 38.6797 -84.8514 274° West 428 493 32,000  Level Indianapolis Center
Thu 10:41:12 AM 38.6886 -85.0022 274° West 426 490 32,000  Level Indianapolis Center
Thu 10:42:14 AM 38.6922 -85.1525 272° West 425 489 32,000  Level Indianapolis Center
Thu 10:43:16 AM 38.6681 -85.3014 258° West 427 491 32,000  Level Indianapolis Center
Thu 10:44:18 AM 38.6303 -85.4556 253° West 425 489 32,000  Level Indianapolis Center
Thu 10:45:20 AM 38.5950 -85.6008 253° West 427 491 32,000  Level Indianapolis Center
Thu 10:46:22 AM 38.5608 -85.7469 253° West 428 493 32,000  Level Indianapolis Center
Thu 10:47:24 AM 38.5189 -85.9203 253° West 425 489 32,000  Level Indianapolis Center
Thu 10:48:26 AM 38.4978 -86.0686 260° West 425 489 32,000  Level Indianapolis Center
Thu 10:49:28 AM 38.4925 -86.2206 268° West 427 491 32,000  Level Indianapolis Center
Thu 10:50:30 AM 38.4883 -86.3742 268° West 431 496 32,000  Level Indianapolis Center
Thu 10:51:32 AM 38.4831 -86.5253 267° West 427 491 32,000  Level Indianapolis Center
Thu 10:52:34 AM 38.4786 -86.6767 268° West 427 491 32,000  Level Indianapolis Center
Thu 10:53:36 AM 38.4725 -86.8578 268° West 428 493 32,000  Level Indianapolis Center
Thu 10:54:38 AM 38.4672 -87.0089 267° West 431 496 32,000  Level Indianapolis Center
Thu 10:55:40 AM 38.4619 -87.1583 267° West 430 495 32,000  Level Indianapolis Center
Thu 10:56:42 AM 38.4556 -87.3081 267° West 429 494 32,000  Level Indianapolis Center
Thu 10:57:44 AM 38.4492 -87.4575 267° West 426 490 32,000  Level Indianapolis Center
Thu 10:58:46 AM 38.4414 -87.6397 267° West 429 494 32,000 195 Level Indianapolis Center
Thu 10:59:47 AM 38.4339 -87.7897 266° West 425 489 32,400 732 Climbing Indianapolis Center
Thu 11:00:49 AM 38.4278 -87.9400 267° West 424 488 33,500 774 Climbing Indianapolis Center
Thu 11:01:51 AM 38.4208 -88.0917 267° West 426 490 34,000 242 Climbing Indianapolis Center
Thu 11:02:53 AM 38.4139 -88.2425 267° West 425 489 34,000  Level Indianapolis Center
Thu 11:03:48 AM 38.4058 -88.3942 266° West 426 490 34,000  Level Kansas City Center
Thu 11:04:50 AM 38.3992 -88.5450 267° West 426 490 34,000  Level Kansas City Center
Thu 11:05:52 AM 38.3908 -88.7019 266° West 428 493 34,000  Level Kansas City Center
Thu 11:06:55 AM 38.3817 -88.8650 266° West 428 493 34,000  Level Kansas City Center
Thu 11:07:57 AM 38.3736 -89.0136 266° West 423 487 34,000  Level Kansas City Center
Thu 11:08:59 AM 38.3644 -89.1742 266° West 422 486 34,000  Level Kansas City Center
Thu 11:10:01 AM 38.3561 -89.3233 266° West 421 484 34,000  Level Kansas City Center
Thu 11:11:03 AM 38.3472 -89.4722 266° West 422 486 34,000  Level Kansas City Center
Thu 11:12:05 AM 38.3378 -89.6333 266° West 423 487 34,000  Level Kansas City Center
Thu 11:13:07 AM 38.3253 -89.7828 264° West 423 487 34,000  Level Kansas City Center
Thu 11:14:09 AM 38.3031 -89.9319 259° West 425 489 34,000  Level Kansas City Center
Thu 11:15:11 AM 38.2808 -90.0822 259° West 430 495 34,000  Level Kansas City Center
Thu 11:16:13 AM 38.2611 -90.2325 261° West 430 495 34,000  Level Kansas City Center
Thu 11:17:15 AM 38.2397 -90.3817 260° West 428 493 34,000  Level Kansas City Center
Thu 11:18:17 AM 38.2178 -90.5303 259° West 425 489 34,000  Level Kansas City Center
Thu 11:19:19 AM 38.1969 -90.6797 260° West 428 493 34,000  Level Kansas City Center
Thu 11:20:21 AM 38.1706 -90.8572 259° West 425 489 34,000  Level Kansas City Center
Thu 11:21:23 AM 38.1489 -91.0064 260° West 428 493 34,000  Level Kansas City Center
Thu 11:22:25 AM 38.1275 -91.1578 260° West 432 497 34,000  Level Kansas City Center
Thu 11:23:27 AM 38.1064 -91.3056 260° West 430 495 34,000  Level Kansas City Center
Thu 11:24:29 AM 38.0839 -91.4539 259° West 429 494 34,000  Level Kansas City Center
Thu 11:25:31 AM 38.0614 -91.6025 259° West 430 495 34,000  Level Kansas City Center
Thu 11:26:33 AM 38.0333 -91.7808 259° West 430 495 34,000  Level Kansas City Center
Thu 11:27:35 AM 38.0106 -91.9300 259° West 431 496 34,000  Level Kansas City Center
Thu 11:28:37 AM 37.9889 -92.0783 260° West 430 495 34,000  Level Kansas City Center
Thu 11:29:39 AM 37.9675 -92.2258 260° West 427 491 34,000  Level Kansas City Center
Thu 11:30:41 AM 37.9511 -92.3744 262° West 427 491 34,000  Level Kansas City Center
Thu 11:31:44 AM 37.9344 -92.5208 262° West 422 486 34,000  Level Kansas City Center
Thu 11:32:46 AM 37.9150 -92.6994 262° West 427 491 34,000  Level Kansas City Center
Thu 11:33:48 AM 37.8981 -92.8436 262° West 420 483 34,000  Level Kansas City Center
Thu 11:34:50 AM 37.8817 -92.9925 262° West 425 489 34,000  Level Kansas City Center
Thu 11:35:52 AM 37.8653 -93.1492 262° West 420 483 34,000  Level Kansas City Center
Thu 11:36:54 AM 37.8481 -93.2919 261° West 427 491 34,000  Level Kansas City Center
Thu 11:37:56 AM 37.8292 -93.4581 262° West 427 491 34,000  Level Kansas City Center
Thu 11:38:58 AM 37.8117 -93.6006 261° West 429 494 34,000  Level Kansas City Center
Thu 11:40:00 AM 37.7925 -93.7681 262° West 431 496 34,000  Level Kansas City Center
Thu 11:41:02 AM 37.7742 -93.9114 261° West 431 496 34,000  Level Kansas City Center
Thu 11:42:04 AM 37.7536 -94.0792 261° West 432 497 34,000  Level Kansas City Center
Thu 11:43:06 AM 37.7364 -94.2222 261° West 430 495 34,000  Level Kansas City Center
Thu 11:44:08 AM 37.7186 -94.3658 261° West 431 496 34,000 -48 Level Kansas City Center
Thu 11:45:10 AM 37.6964 -94.5356 261° West 438 504 33,900  Descending Kansas City Center
Thu 11:46:12 AM 37.6775 -94.6833 261° West 442 509 34,000 97 Climbing Kansas City Center
Thu 11:47:14 AM 37.6572 -94.8417 261° West 445 512 34,100 48 Climbing Kansas City Center
Thu 11:48:16 AM 37.6367 -94.9961 261° West 446 513 34,100 -48 Level Kansas City Center
Thu 11:49:18 AM 37.6128 -95.1819 261° West 448 516 34,000 -48 Descending Kansas City Center
Thu 11:50:20 AM 37.5917 -95.3331 260° West 445 512 34,000  Level Kansas City Center
Thu 11:51:22 AM 37.5711 -95.4806 260° West 436 502 34,000  Level Kansas City Center
Thu 11:52:24 AM 37.5506 -95.6317 260° West 437 503 34,000  Level Kansas City Center
Thu 11:53:26 AM 37.5289 -95.7844 260° West 441 507 34,000  Level Kansas City Center
Thu 11:54:28 AM 37.5072 -95.9394 260° West 448 516 34,000  Level Kansas City Center
Thu 11:55:30 AM 37.4900 -96.1244 263° West 446 513 34,000  Level Kansas City Center
Thu 11:56:32 AM 37.4811 -96.2775 266° West 441 507 34,000  Level Kansas City Center
Thu 11:57:35 AM 37.4714 -96.4319 266° West 442 509 34,000  Level Kansas City Center
Thu 11:58:37 AM 37.4611 -96.5783 265° West 442 509 34,000  Level Kansas City Center
Thu 11:59:39 AM 37.4511 -96.7325 265° West 442 509 34,000  Level Kansas City Center
Thu 12:00:41 PM 37.4411 -96.9139 266° West 437 503 34,000  Level Kansas City Center
Thu 12:01:43 PM 37.4317 -97.0650 266° West 433 498 34,000  Level Kansas City Center
Thu 12:02:45 PM 37.4197 -97.2172 264° West 436 502 34,000  Level Kansas City Center
Thu 12:03:47 PM 37.4092 -97.3697 265° West 436 502 34,000  Level Kansas City Center
Thu 12:04:49 PM 37.3972 -97.5231 264° West 438 504 34,000  Level Kansas City Center
Thu 12:05:51 PM 37.3858 -97.6767 265° West 439 505 34,000  Level Kansas City Center
Thu 12:06:53 PM 37.3739 -97.8311 264° West 441 507 34,000  Level Kansas City Center
Thu 12:07:55 PM 37.3603 -98.0133 265° West 437 503 34,000  Level Kansas City Center
Thu 12:08:57 PM 37.3483 -98.1658 264° West 436 502 34,000  Level Kansas City Center
Thu 12:09:59 PM 37.3369 -98.3186 265° West 437 503 34,000  Level Kansas City Center
Thu 12:11:01 PM 37.3256 -98.4672 265° West 431 496 34,000 484 Level Kansas City Center
Thu 12:12:03 PM 37.3142 -98.6175 265° West 430 495 35,000 968 Climbing Kansas City Center
Thu 12:13:05 PM 37.3025 -98.7631 264° West 424 488 36,000 484 Climbing Kansas City Center
Thu 12:14:07 PM 37.2911 -98.9058 264° West 416 479 36,000  Level Kansas City Center
Thu 12:15:10 PM 37.2764 -99.0764 264° West 410 472 36,000  Level Kansas City Center
Thu 12:16:11 PM 37.2650 -99.2217 264° West 410 472 36,000  Level Kansas City Center
Thu 12:17:13 PM 37.2517 -99.3628 263° West 409 471 36,000  Level Kansas City Center
Thu 12:18:15 PM 37.2408 -99.5042 265° West 409 471 36,000  Level Kansas City Center
Thu 12:19:18 PM 37.2283 -99.6433 264° West 405 466 36,000  Level Kansas City Center
Thu 12:20:20 PM 37.2156 -99.7856 264° West 406 467 36,000  Level Kansas City Center
Thu 12:21:22 PM 37.2017 -99.9503 264° West 404 465 36,000  Level Kansas City Center
Thu 12:22:24 PM 37.1889 -100.0878 263° West 400 460 36,000  Level Kansas City Center
Thu 12:23:26 PM 37.1758 -100.2283 263° West 402 463 36,000 48 Level Kansas City Center
Thu 12:24:28 PM 37.1622 -100.3686 263° West 404 465 36,100  Climbing Kansas City Center
Thu 12:25:30 PM 37.1494 -100.5078 263° West 403 464 36,000 -48 Descending Kansas City Center
Thu 12:26:32 PM 37.1367 -100.6469 263° West 401 461 36,000  Level Kansas City Center
Thu 12:27:34 PM 37.1225 -100.7847 263° West 400 460 36,000  Level Kansas City Center
Thu 12:28:36 PM 37.1072 -100.9492 263° West 398 458 36,000  Level Kansas City Center
Thu 12:29:38 PM 37.0925 -101.0864 262° West 397 457 36,000  Level Kansas City Center
Thu 12:30:40 PM 37.0794 -101.2286 263° West 395 455 36,000  Level Kansas City Center
Thu 12:31:42 PM 37.0656 -101.3650 263° West 396 456 36,000  Level Kansas City Center
Thu 12:32:44 PM 37.0519 -101.5003 263° West 395 455 36,000  Level Kansas City Center
Thu 12:33:46 PM 37.0383 -101.6369 263° West 396 456 36,000  Level Kansas City Center
Thu 12:34:48 PM 37.0239 -101.7753 263° West 400 460 36,000  Level Kansas City Center
Thu 12:35:50 PM 37.0069 -101.9403 263° West 401 461 36,000  Level Kansas City Center
Thu 12:36:52 PM 36.9869 -102.0769 260° West 402 463 36,000  Level Kansas City Center
Thu 12:37:55 PM 36.9656 -102.2119 259° West 400 460 36,000  Level Kansas City Center
Thu 12:38:51 PM 36.9444 -102.3367 258° West 403 464 36,000  Level Albuquerque Center
Thu 12:39:53 PM 36.9178 -102.4906 258° West 405 466 36,000  Level Albuquerque Center
Thu 12:40:55 PM 36.8958 -102.6228 258° West 407 468 36,000  Level Albuquerque Center
Thu 12:41:57 PM 36.8706 -102.7753 258° West 403 464 36,000  Level Albuquerque Center
Thu 12:42:59 PM 36.8478 -102.9100 258° West 408 470 36,000  Level Albuquerque Center
Thu 12:44:01 PM 36.8217 -103.0664 258° West 411 473 36,000  Level Albuquerque Center
Thu 12:45:03 PM 36.7978 -103.1994 257° West 410 472 36,000  Level Albuquerque Center
Thu 12:46:05 PM 36.7703 -103.3528 257° West 406 467 36,000  Level Albuquerque Center
Thu 12:47:07 PM 36.7472 -103.4858 258° West 408 470 36,000  Level Albuquerque Center
Thu 12:48:09 PM 36.7197 -103.6408 258° West 409 471 36,000  Level Albuquerque Center
Thu 12:49:11 PM 36.6956 -103.7736 257° West 410 472 36,000  Level Albuquerque Center
Thu 12:50:13 PM 36.6717 -103.9078 258° West 411 473 36,000  Level Albuquerque Center
Thu 12:51:15 PM 36.6433 -104.0594 257° West 415 478 36,000  Level Albuquerque Center
Thu 12:52:17 PM 36.6175 -104.2017 257° West 418 481 36,000  Level Albuquerque Center
Thu 12:53:19 PM 36.5914 -104.3436 257° West 419 482 36,000  Level Albuquerque Center
Thu 12:54:22 PM 36.5597 -104.5111 257° West 422 486 36,000  Level Albuquerque Center
Thu 12:55:24 PM 36.5336 -104.6533 257° West 422 486 36,000  Level Albuquerque Center
Thu 12:56:26 PM 36.5067 -104.7933 257° West 417 480 36,000  Level Albuquerque Center
Thu 12:57:28 PM 36.4797 -104.9364 257° West 422 486 36,000  Level Albuquerque Center
Thu 12:58:30 PM 36.4522 -105.0800 257° West 424 488 36,000  Level Albuquerque Center
Thu 12:59:32 PM 36.4256 -105.2222 257° West 422 486 36,000  Level Albuquerque Center
Thu 01:00:34 PM 36.3911 -105.3936 256° West 431 496 36,000  Level Albuquerque Center
Thu 01:01:36 PM 36.3653 -105.5278 257° West 431 496 36,000  Level Albuquerque Center
Thu 01:02:38 PM 36.3361 -105.6744 256° West 436 502 36,000  Level Albuquerque Center
Thu 01:03:40 PM 36.3072 -105.8189 256° West 435 501 36,000  Level Albuquerque Center
Thu 01:04:42 PM 36.2778 -105.9661 256° West 438 504 36,000  Level Albuquerque Center
Thu 01:05:44 PM 36.2161 -106.1314 245° Southwest 442 509 36,000  Level Albuquerque Center
Thu 01:06:46 PM 36.1642 -106.2683 245° Southwest 440 506 36,000  Level Albuquerque Center
Thu 01:07:49 PM 36.1144 -106.4047 246° West 438 504 36,000  Level Albuquerque Center
Thu 01:08:51 PM 36.0631 -106.5414 245° Southwest 438 504 36,000  Level Albuquerque Center
Thu 01:09:53 PM 36.0114 -106.6739 244° Southwest 434 499 36,000  Level Albuquerque Center
Thu 01:10:55 PM 35.9611 -106.8094 245° Southwest 434 499 36,000  Level Albuquerque Center
Thu 01:11:57 PM 35.9022 -106.9664 245° Southwest 433 498 36,000  Level Albuquerque Center
Thu 01:12:59 PM 35.8531 -107.0944 245° Southwest 432 497 36,000  Level Albuquerque Center
Thu 01:14:01 PM 35.7944 -107.2450 244° Southwest 434 499 36,000  Level Albuquerque Center
Thu 01:15:03 PM 35.7308 -107.3619 236° Southwest 435 501 36,000  Level Albuquerque Center
Thu 01:16:05 PM 35.6456 -107.4903 231° Southwest 432 497 36,000  Level Albuquerque Center
Thu 01:17:07 PM 35.5722 -107.5997 231° Southwest 433 498 36,000  Level Albuquerque Center
Thu 01:18:09 PM 35.4867 -107.7297 231° Southwest 435 501 36,000  Level Albuquerque Center
Thu 01:19:11 PM 35.4353 -107.8525 243° Southwest 433 498 36,000  Level Albuquerque Center
Thu 01:20:13 PM 35.4131 -108.0128 260° West 424 488 36,000  Level Albuquerque Center
Thu 01:21:15 PM 35.3925 -108.1508 260° West 426 490 36,000  Level Albuquerque Center
Thu 01:22:17 PM 35.3711 -108.3092 261° West 423 487 36,000  Level Albuquerque Center
Thu 01:23:19 PM 35.3519 -108.4450 260° West 422 486 36,000  Level Albuquerque Center
Thu 01:24:21 PM 35.3317 -108.5814 260° West 422 486 36,000  Level Albuquerque Center
Thu 01:25:23 PM 35.3089 -108.7400 260° West 422 486 36,000  Level Albuquerque Center
Thu 01:26:25 PM 35.2894 -108.8750 260° West 421 484 36,000  Level Albuquerque Center
Thu 01:27:27 PM 35.2658 -109.0325 260° West 419 482 36,000  Level Albuquerque Center
Thu 01:28:29 PM 35.2467 -109.1678 260° West 419 482 36,000  Level Albuquerque Center
Thu 01:29:32 PM 35.2236 -109.3267 260° West 423 487 36,000  Level Albuquerque Center
Thu 01:30:34 PM 35.2014 -109.4603 259° West 420 483 36,000  Level Albuquerque Center
Thu 01:31:36 PM 35.1778 -109.6172 260° West 420 483 36,000  Level Albuquerque Center
Thu 01:32:38 PM 35.1561 -109.7522 259° West 421 484 36,000  Level Albuquerque Center
Thu 01:33:39 PM 35.1361 -109.8914 260° West 429 494 36,000  Level Albuquerque Center
Thu 01:34:41 PM 35.1119 -110.0481 259° West 424 488 36,000  Level Albuquerque Center
Thu 01:35:43 PM 35.0894 -110.1822 258° West 421 484 36,000  Level Albuquerque Center
Thu 01:36:45 PM 35.0636 -110.3394 259° West 422 486 36,000  Level Albuquerque Center
Thu 01:37:47 PM 35.0408 -110.4725 258° West 421 484 36,000  Level Albuquerque Center
Thu 01:38:49 PM 35.0144 -110.6275 258° West 418 481 36,000  Level Albuquerque Center
Thu 01:39:51 PM 34.9931 -110.7503 258° West 420 483 36,000  Level Albuquerque Center
Thu 01:40:53 PM 34.9672 -110.9172 259° West 421 484 36,000  Level Albuquerque Center
Thu 01:41:55 PM 34.9450 -111.0547 259° West 417 480 36,000  Level Albuquerque Center
Thu 01:42:57 PM 34.9236 -111.1967 260° West 423 487 36,000  Level Albuquerque Center
Thu 01:43:59 PM 34.9011 -111.3333 259° West 417 480 36,000  Level Albuquerque Center
Thu 01:45:01 PM 34.8775 -111.4703 258° West 415 478 36,000  Level Albuquerque Center
Thu 01:46:03 PM 34.8542 -111.6083 258° West 417 480 36,000  Level Albuquerque Center
Thu 01:47:05 PM 34.8275 -111.7672 258° West 421 484 36,000  Level Albuquerque Center
Thu 01:48:06 PM 34.8022 -111.9078 258° West 425 489 36,000  Level Albuquerque Center
Thu 01:49:08 PM 34.7781 -112.0481 258° West 426 490 36,000  Level Albuquerque Center
Thu 01:50:10 PM 34.7533 -112.1889 258° West 426 490 36,000  Level Albuquerque Center
Thu 01:51:12 PM 34.7275 -112.3333 258° West 423 487 36,000  Level Albuquerque Center
Thu 01:52:14 PM 34.6981 -112.4942 257° West 422 486 36,000 -145 Level Albuquerque Center
Thu 01:53:16 PM 34.6631 -112.6294 253° West 420 483 35,700 -435 Descending Albuquerque Center
Thu 01:54:18 PM 34.6275 -112.7633 252° West 418 481 35,100 -581 Descending Albuquerque Center
Thu 01:55:20 PM 34.5922 -112.8969 252° West 417 480 34,500 -537 Descending Albuquerque Center
Thu 01:56:21 PM 34.5561 -113.0317 252° West 420 483 34,000 -244 Descending Albuquerque Center
Thu 01:57:23 PM 34.5200 -113.1667 252° West 421 484 34,000  Level Albuquerque Center
Thu 01:58:25 PM 34.4761 -113.3281 252° West 422 486 34,000  Level Albuquerque Center
Thu 01:59:27 PM 34.4389 -113.4625 251° West 422 486 34,000  Level Albuquerque Center
Thu 02:00:29 PM 34.4022 -113.6011 252° West 425 489 34,000  Level Albuquerque Center
Thu 02:01:31 PM 34.3622 -113.7431 251° West 425 489 34,000  Level Albuquerque Center
Thu 02:02:33 PM 34.3256 -113.8772 252° West 423 487 34,000  Level Albuquerque Center
Thu 02:03:34 PM 34.2883 -114.0122 252° West 422 486 34,000  Level Albuquerque Center
Thu 02:04:36 PM 34.2511 -114.1475 252° West 424 488 34,000  Level Albuquerque Center
Thu 02:05:38 PM 34.2133 -114.2839 252° West 426 490 34,000  Level Albuquerque Center
Thu 02:06:24 PM 34.1839 -114.3897 251° West 424 488 34,000 -56 Level Los Angeles Center
Thu 02:07:26 PM 34.1472 -114.5250 252° West 426 490 33,900 -48 Descending Los Angeles Center
Thu 02:08:28 PM 34.0997 -114.6844 250° West 422 486 33,900  Level Los Angeles Center
Thu 02:09:30 PM 34.0464 -114.8106 243° Southwest 423 487 33,900  Level Los Angeles Center
Thu 02:10:33 PM 33.9903 -114.9356 242° Southwest 424 488 33,900  Level Los Angeles Center
Thu 02:11:35 PM 33.9353 -115.0594 242° Southwest 421 484 33,900 -1,161 Level Los Angeles Center
Thu 02:12:37 PM 33.8800 -115.1856 242° Southwest 425 489 31,500 -2,226 Descending Los Angeles Center
Thu 02:13:39 PM 33.8242 -115.3086 241° Southwest 422 486 29,300 -2,274 Descending Los Angeles Center
Thu 02:14:41 PM 33.7614 -115.4511 242° Southwest 408 470 26,800 -2,226 Descending Los Angeles Center
Thu 02:15:43 PM 33.7103 -115.5656 242° Southwest 395 455 24,700 -1,403 Descending Los Angeles Center
Thu 02:16:45 PM 33.6586 -115.6806 242° Southwest 392 451 23,900 -339 Descending Los Angeles Center
Thu 02:17:47 PM 33.6017 -115.7983 240° Southwest 404 465 24,000 -97 Climbing Los Angeles Center
Thu 02:18:49 PM 33.5358 -115.9094 235° Southwest 409 471 23,700 -480 Descending Los Angeles Center
Thu 02:19:52 PM 33.4561 -116.0025 224° Southwest 409 471 23,000 -1,392 Descending Los Angeles Center
Thu 02:20:54 PM 33.3522 -116.1044 219° Southwest 402 463 20,800 -2,274 Descending Los Angeles Center
Thu 02:21:56 PM 33.2683 -116.1881 220° Southwest 397 457 18,300 -2,371 Descending Los Angeles Center
Thu 02:22:58 PM 33.1869 -116.2681 219° Southwest 384 442 15,900 -2,274 Descending Los Angeles Center
Thu 02:24:00 PM 33.1075 -116.3447 219° Southwest 374 430 13,600 -1,694 Descending Los Angeles Center
Thu 02:25:02 PM 33.0303 -116.4197 219° Southwest 353 406 12,400 -1,065 Descending Los Angeles Center
Thu 02:26:04 PM 32.9706 -116.4939 226° Southwest 315 362 11,400 -1,645 Descending Los Angeles Center
Thu 02:27:06 PM 32.9158 -116.5761 232° Southwest 286 329 9,000 -1,152 Descending Los Angeles Center
Thu 02:28:09 PM 32.8672 -116.6475 231° Southwest 282 325 9,000 -624 Level Los Angeles Center
Thu 02:29:11 PM 32.8194 -116.7183 231° Southwest 278 320 7,700 -1,452 Descending Los Angeles Center
Thu 02:30:13 PM 32.7622 -116.8017 231° Southwest 274 315 6,000 -1,113 Descending Los Angeles Center
Thu 02:31:15 PM 32.7161 -116.8692 231° Southwest 268 308 5,400 -894 Descending Los Angeles Center
Thu 02:31:47 PM 32.7000 -116.9000 238° Southwest 233 268 4,600 -1,500 Descending Southern California TRACON

Login

Don't have an account? Register now (free) for customized features, flight alerts, and more!